Time;durP1;ratioP1;P1;durP2;ratioP2;P2;SDS_P1;SDS_P2;PMS_P1;PMS_P2;Temp;Humidity;BMP_temperature;BMP_pressure;BME280_temperature;BME280_humidity;BME280_pressure;Samples;Min_cycle;Max_cycle;Signal;HPM_P1;HPM_P2
2021/10/29 00:00:14;;;;;;;4.47;3.45;;;14.90;78.40;;;;;;5135517;27;20042;-57
2021/10/29 00:02:40;;;;;;;3.67;3.03;;;14.90;78.40;;;;;;5135641;27;20047;-59
2021/10/29 00:05:06;;;;;;;3.72;3.10;;;14.90;78.40;;;;;;5135699;27;20088;-59
2021/10/29 00:07:32;;;;;;;3.83;3.08;;;14.90;78.40;;;;;;5135478;27;20118;-59
2021/10/29 00:09:59;;;;;;;4.10;3.20;;;14.90;78.40;;;;;;5135536;27;20566;-59
2021/10/29 00:12:25;;;;;;;3.85;3.05;;;14.90;78.40;;;;;;5133815;27;20414;-59
2021/10/29 00:14:51;;;;;;;4.20;3.63;;;14.90;79.10;;;;;;5135796;27;20043;-59
2021/10/29 00:17:18;;;;;;;4.03;3.47;;;14.80;78.40;;;;;;5135549;27;20122;-59
2021/10/29 00:19:43;;;;;;;3.97;3.38;;;14.90;78.40;;;;;;5135732;27;20058;-59
2021/10/29 00:22:09;;;;;;;3.97;3.25;;;14.90;78.40;;;;;;5134874;27;20483;-59
2021/10/29 00:24:35;;;;;;;3.58;3.20;;;14.90;78.40;;;;;;5135014;27;20058;-59
2021/10/29 00:27:01;;;;;;;3.78;3.15;;;14.90;78.40;;;;;;5134857;27;20043;-59
2021/10/29 00:29:27;;;;;;;3.80;3.40;;;14.90;78.40;;;;;;5116848;27;20039;-59
2021/10/29 00:31:52;;;;;;;4.30;3.30;;;14.90;78.40;;;;;;5135257;27;20074;-59
2021/10/29 00:34:19;;;;;;;4.03;3.33;;;14.90;78.40;;;;;;5135048;27;20450;-59
2021/10/29 00:36:45;;;;;;;4.50;3.53;;;14.90;78.40;;;;;;5134896;27;20100;-59
2021/10/29 00:39:11;;;;;;;3.58;3.28;;;14.90;78.40;;;;;;5134894;27;20035;-59
2021/10/29 00:41:37;;;;;;;3.78;3.00;;;14.90;78.40;;;;;;5134518;27;20054;-59
2021/10/29 00:44:06;;;;;;;4.20;3.22;;;14.80;79.00;;;;;;5134532;27;20031;-58
2021/10/29 00:46:32;;;;;;;3.70;3.03;;;14.90;78.40;;;;;;5135077;27;20039;-59
2021/10/29 00:48:57;;;;;;;4.72;3.80;;;14.90;78.40;;;;;;5134609;27;20547;-59
2021/10/29 00:51:24;;;;;;;3.50;3.03;;;14.80;78.40;;;;;;5134652;27;20042;-59
2021/10/29 00:53:50;;;;;;;4.07;3.38;;;14.90;78.50;;;;;;5134705;27;20035;-59
2021/10/29 00:56:17;;;;;;;3.63;2.97;;;14.90;78.50;;;;;;5134606;27;20103;-59
2021/10/29 00:58:43;;;;;;;4.25;3.25;;;14.90;78.40;;;;;;5134511;27;20050;-59
2021/10/29 01:01:09;;;;;;;3.92;3.35;;;14.80;78.40;;;;;;5134942;27;20035;-59
2021/10/29 01:03:42;;;;;;;3.97;3.38;;;14.90;78.40;;;;;;5134641;27;20475;-59
2021/10/29 01:06:09;;;;;;;3.75;3.15;;;14.80;78.40;;;;;;5115785;27;20051;-59
2021/10/29 01:08:35;;;;;;;4.10;3.70;;;14.80;78.40;;;;;;5134377;27;20047;-59
2021/10/29 01:11:02;;;;;;;4.30;3.20;;;14.90;78.50;;;;;;5115741;27;20055;-59
2021/10/29 01:13:28;;;;;;;4.25;3.35;;;14.80;78.40;;;;;;5134013;27;20070;-59
2021/10/29 01:15:55;;;;;;;4.28;3.47;;;14.80;78.40;;;;;;5134131;27;20432;-59
2021/10/29 01:18:21;;;;;;;4.18;3.38;;;14.80;78.40;;;;;;5115508;27;20121;-59
2021/10/29 01:20:47;;;;;;;4.25;3.53;;;14.80;78.40;;;;;;5134398;27;20114;-59
2021/10/29 01:23:12;;;;;;;4.32;3.10;;;14.90;78.50;;;;;;5133838;27;20483;-59
2021/10/29 01:25:38;;;;;;;3.78;3.38;;;14.80;78.40;;;;;;5133670;27;20721;-58
2021/10/29 01:28:09;;;;;;;3.90;3.28;;;14.80;78.40;;;;;;5134265;27;20054;-58
2021/10/29 01:30:36;;;;;;;4.13;3.42;;;14.90;78.40;;;;;;5133189;27;20070;-59
2021/10/29 01:33:02;;;;;;;4.25;3.85;;;14.80;78.40;;;;;;5133752;27;20039;-59
2021/10/29 01:35:28;;;;;;;4.22;3.53;;;14.90;78.40;;;;;;5134141;27;20532;-59
2021/10/29 01:37:54;;;;;;;4.10;3.55;;;14.90;78.40;;;;;;5115535;27;20046;-59
2021/10/29 01:40:20;;;;;;;3.80;3.30;;;14.90;78.50;;;;;;5133826;27;20035;-59
2021/10/29 01:42:48;;;;;;;3.40;3.03;;;14.90;78.40;;;;;;5134199;27;20444;-59
2021/10/29 01:45:14;;;;;;;3.67;3.33;;;14.90;78.40;;;;;;5133337;27;20502;-59
2021/10/29 01:47:40;;;;;;;4.30;3.58;;;14.90;78.40;;;;;;5133555;27;20448;-58
2021/10/29 01:50:07;;;;;;;4.05;3.35;;;14.90;78.50;;;;;;5134175;27;20036;-59
2021/10/29 01:52:33;;;;;;;3.58;3.00;;;14.90;78.40;;;;;;5133898;27;20139;-58
2021/10/29 01:54:59;;;;;;;5.25;3.85;;;14.90;78.50;;;;;;5133851;27;20505;-58
2021/10/29 01:57:25;;;;;;;4.07;3.40;;;14.80;78.40;;;;;;5133545;27;20047;-58
2021/10/29 01:59:51;;;;;;;4.35;3.30;;;14.90;78.50;;;;;;5134090;27;20087;-59
2021/10/29 02:02:16;;;;;;;4.10;3.08;;;14.90;78.40;;;;;;5133233;28;20118;-59
2021/10/29 02:04:42;;;;;;;4.00;3.60;;;14.80;78.40;;;;;;5133590;28;20043;-59
2021/10/29 02:07:08;;;;;;;5.30;3.50;;;14.90;78.50;;;;;;5133857;28;20035;-59
2021/10/29 02:09:33;;;;;;;4.35;3.50;;;14.90;78.40;;;;;;5133209;28;20388;-59
2021/10/29 02:11:59;;;;;;;4.00;3.50;;;14.80;78.40;;;;;;5133469;28;20078;-58
2021/10/29 02:14:25;;;;;;;3.80;3.20;;;14.80;78.40;;;;;;5133671;28;20086;-58
2021/10/29 02:16:51;;;;;;;3.50;3.00;;;14.90;78.40;;;;;;5133054;28;20082;-58
2021/10/29 02:19:17;;;;;;;4.43;3.20;;;14.90;78.40;;;;;;5133215;28;20451;-57
2021/10/29 02:21:43;;;;;;;3.70;3.33;;;14.80;78.40;;;;;;5133449;28;20074;-59
2021/10/29 02:24:08;;;;;;;4.20;3.30;;;14.90;78.40;;;;;;5114986;28;20055;-59
2021/10/29 02:26:34;;;;;;;4.25;3.28;;;14.80;78.40;;;;;;5133476;28;20096;-59
2021/10/29 02:29:01;;;;;;;3.65;3.00;;;14.80;78.40;;;;;;5133775;28;20096;-59
2021/10/29 02:31:27;;;;;;;5.40;4.00;;;14.80;78.40;;;;;;5114746;28;20055;-58
2021/10/29 02:33:56;;;;;;;3.65;2.95;;;14.80;78.40;;;;;;5132996;27;20043;-58
2021/10/29 02:36:22;;;;;;;3.65;3.25;;;14.80;78.40;;;;;;5137023;27;20038;-59
2021/10/29 02:38:48;;;;;;;4.28;3.22;;;14.80;79.10;;;;;;5137722;27;20386;-59
2021/10/29 02:41:14;;;;;;;4.32;3.30;;;14.80;78.40;;;;;;5137246;27;20047;-59
2021/10/29 02:43:46;;;;;;;3.35;3.03;;;14.80;78.40;;;;;;5137252;27;20530;-59
2021/10/29 02:46:12;;;;;;;4.40;3.70;;;14.80;78.40;;;;;;5137230;27;20062;-59
2021/10/29 02:48:38;;;;;;;4.53;3.70;;;14.80;78.50;;;;;;5118453;27;20487;-59
2021/10/29 02:51:04;;;;;;;4.28;3.25;;;14.80;78.40;;;;;;5136788;27;20106;-58
2021/10/29 02:53:33;;;;;;;4.72;3.45;;;14.80;78.40;;;;;;5137092;27;20055;-58
2021/10/29 02:56:00;;;;;;;4.05;3.30;;;14.80;78.40;;;;;;5137135;27;20424;-59
2021/10/29 02:58:28;;;;;;;4.22;3.13;;;14.80;78.40;;;;;;5118502;27;20047;-59
2021/10/29 03:00:54;;;;;;;4.63;3.45;;;14.80;78.40;;;;;;5137175;27;20126;-58
2021/10/29 03:03:20;;;;;;;5.22;3.30;;;14.80;78.40;;;;;;5136801;27;20112;-57
2021/10/29 03:05:45;;;;;;;3.65;2.90;;;14.80;78.50;;;;;;5117998;27;20039;-57
2021/10/29 03:08:11;;;;;;;3.85;3.38;;;14.80;78.40;;;;;;5136909;27;20051;-59
2021/10/29 03:10:37;;;;;;;4.10;3.63;;;14.80;78.40;;;;;;5136781;27;20118;-58
2021/10/29 03:13:03;;;;;;;4.25;3.30;;;14.80;78.40;;;;;;5136423;27;20053;-59
2021/10/29 03:15:29;;;;;;;3.97;3.55;;;14.80;78.40;;;;;;5136496;27;20032;-58
2021/10/29 03:17:54;;;;;;;4.50;3.20;;;14.80;78.40;;;;;;5136702;27;20043;-59
2021/10/29 03:20:21;;;;;;;3.90;3.47;;;14.80;78.40;;;;;;5136194;27;20617;-59
2021/10/29 03:22:47;;;;;;;3.90;3.20;;;14.80;78.40;;;;;;5117525;27;20130;-58
2021/10/29 03:25:12;;;;;;;4.63;3.50;;;14.80;78.40;;;;;;5118020;27;20491;-59
2021/10/29 03:27:38;;;;;;;3.53;3.22;;;14.80;78.40;;;;;;5136463;27;20050;-58
2021/10/29 03:30:05;;;;;;;3.83;3.15;;;14.80;78.40;;;;;;5136646;27;20035;-58
2021/10/29 03:32:31;;;;;;;4.45;3.45;;;14.80;78.40;;;;;;5136355;27;20536;-59
2021/10/29 03:34:58;;;;;;;4.72;3.13;;;14.80;78.40;;;;;;5136240;27;20110;-59
2021/10/29 03:42:44;;;;;;;4.32;3.70;;;14.80;78.40;;;;;;5136124;27;20043;-57
2021/10/29 03:45:13;;;;;;;4.20;3.13;;;14.70;78.30;;;;;;5136100;27;20039;-59
2021/10/29 03:47:45;;;;;;;4.43;3.35;;;14.80;78.40;;;;;;5135955;27;20050;-58
2021/10/29 03:50:32;;;;;;;4.22;3.58;;;14.80;78.40;;;;;;5136196;27;20046;-58
2021/10/29 03:55:32;;;;;;;3.58;3.15;;;14.80;78.50;;;;;;5135411;27;20039;-58
2021/10/29 03:57:58;;;;;;;4.00;3.30;;;14.70;78.40;;;;;;5136215;27;20066;-57
2021/10/29 04:00:28;;;;;;;3.70;3.10;;;14.70;78.40;;;;;;5136059;27;20483;-58
2021/10/29 04:03:02;;;;;;;4.05;3.45;;;14.80;78.50;;;;;;5117368;27;20388;-59
2021/10/29 04:05:29;;;;;;;4.00;3.58;;;14.80;78.40;;;;;;5135570;27;20118;-58
2021/10/29 04:07:55;;;;;;;3.78;2.97;;;14.80;78.40;;;;;;5116721;27;20047;-59
2021/10/29 04:10:26;;;;;;;5.15;3.65;;;14.70;78.40;;;;;;5135609;27;20043;-59
2021/10/29 04:12:58;;;;;;;4.85;3.60;;;14.80;78.40;;;;;;5135968;27;20046;-58
2021/10/29 04:15:24;;;;;;;4.10;3.20;;;14.80;78.40;;;;;;5135616;27;20122;-59
2021/10/29 04:17:50;;;;;;;4.63;3.50;;;14.80;78.40;;;;;;5134453;27;20175;-58
2021/10/29 04:20:17;;;;;;;3.75;3.05;;;14.80;78.40;;;;;;5135519;27;20509;-59
2021/10/29 04:22:43;;;;;;;4.78;3.25;;;14.80;78.40;;;;;;5135397;27;20039;-58
2021/10/29 04:25:09;;;;;;;5.18;3.53;;;14.80;78.40;;;;;;5115808;27;20077;-58
2021/10/29 04:27:42;;;;;;;3.63;2.90;;;14.80;78.40;;;;;;5135125;27;20043;-59
2021/10/29 04:30:12;;;;;;;3.45;2.90;;;14.80;79.10;;;;;;5135487;27;20039;-59
2021/10/29 04:32:37;;;;;;;4.20;3.63;;;14.80;78.50;;;;;;5135441;27;20046;-59
2021/10/29 04:35:04;;;;;;;3.67;3.30;;;14.80;78.40;;;;;;5135117;27;20042;-59
2021/10/29 04:37:29;;;;;;;4.10;3.10;;;14.70;78.40;;;;;;5134559;27;20146;-57
2021/10/29 04:39:55;;;;;;;3.38;2.90;;;14.80;78.40;;;;;;5134220;27;20490;-59
2021/10/29 04:42:21;;;;;;;4.50;3.28;;;14.80;78.40;;;;;;5135176;27;20380;-59
2021/10/29 04:44:47;;;;;;;3.88;3.47;;;14.80;78.40;;;;;;5135265;27;20425;-59
2021/10/29 04:47:13;;;;;;;3.70;3.35;;;14.80;78.40;;;;;;5134688;27;20130;-58
2021/10/29 04:49:38;;;;;;;3.70;3.20;;;14.70;79.00;;;;;;5134563;27;20047;-58
2021/10/29 04:52:05;;;;;;;3.47;3.08;;;14.70;78.30;;;;;;5134973;27;20394;-59
2021/10/29 04:54:31;;;;;;;5.13;3.92;;;14.80;78.40;;;;;;5134580;27;20035;-59
2021/10/29 04:56:58;;;;;;;3.50;3.08;;;14.70;78.30;;;;;;5115750;27;20061;-59
2021/10/29 04:59:24;;;;;;;3.67;2.65;;;14.70;78.40;;;;;;5115371;27;20388;-59
2021/10/29 05:01:50;;;;;;;3.97;3.50;;;14.80;78.40;;;;;;5133490;27;20366;-59
2021/10/29 05:04:18;;;;;;;4.97;3.42;;;14.80;78.40;;;;;;5134608;27;20035;-58
2021/10/29 05:06:44;;;;;;;3.70;3.22;;;14.80;78.50;;;;;;5134305;27;20051;-59
2021/10/29 05:09:10;;;;;;;3.58;3.20;;;14.70;78.40;;;;;;5134104;27;20039;-58
2021/10/29 05:11:35;;;;;;;3.72;2.92;;;14.80;78.50;;;;;;5133815;27;20457;-59
2021/10/29 05:14:01;;;;;;;3.78;2.90;;;14.80;78.50;;;;;;5134298;27;20035;-57
2021/10/29 05:16:27;;;;;;;3.83;3.08;;;14.70;78.40;;;;;;5134502;27;20088;-59
2021/10/29 05:18:53;;;;;;;4.82;3.00;;;14.70;78.40;;;;;;5134330;27;20035;-59
2021/10/29 05:21:19;;;;;;;3.95;3.17;;;14.80;78.40;;;;;;5133861;27;20421;-59
2021/10/29 05:23:44;;;;;;;3.42;3.10;;;14.80;78.50;;;;;;5133938;27;20050;-59
2021/10/29 05:26:10;;;;;;;3.65;3.00;;;14.70;78.40;;;;;;5133699;27;20486;-58
2021/10/29 05:28:36;;;;;;;4.03;3.30;;;14.80;78.50;;;;;;5133994;27;20043;-59
2021/10/29 05:31:02;;;;;;;4.60;3.20;;;14.80;78.50;;;;;;5133883;27;20036;-59
2021/10/29 05:33:28;;;;;;;4.47;3.30;;;14.80;78.50;;;;;;5134186;27;20043;-58
2021/10/29 05:35:54;;;;;;;4.38;3.17;;;14.70;78.40;;;;;;5134085;27;20047;-58
2021/10/29 05:38:20;;;;;;;3.80;3.10;;;14.80;78.50;;;;;;5134057;27;20406;-59
2021/10/29 05:40:46;;;;;;;3.85;3.03;;;14.80;78.50;;;;;;5134043;27;20115;-59
2021/10/29 05:43:11;;;;;;;3.50;3.10;;;14.80;78.50;;;;;;5133096;27;20509;-58
2021/10/29 05:45:37;;;;;;;4.22;2.90;;;14.80;78.40;;;;;;5133636;27;20054;-59
2021/10/29 05:48:06;;;;;;;3.63;3.00;;;14.80;78.50;;;;;;5133986;27;20047;-58
2021/10/29 05:50:33;;;;;;;3.60;3.05;;;14.70;78.40;;;;;;5133741;27;20046;-58
2021/10/29 05:53:03;;;;;;;4.38;3.42;;;14.80;78.40;;;;;;5133743;27;20149;-58
2021/10/29 05:55:30;;;;;;;3.67;3.13;;;14.80;78.40;;;;;;5133327;27;20043;-59
2021/10/29 05:57:55;;;;;;;3.45;3.03;;;14.70;78.40;;;;;;5133702;27;20050;-58
2021/10/29 06:00:27;;;;;;;3.30;2.75;;;14.70;78.40;;;;;;5133507;27;20039;-59
2021/10/29 06:03:03;;;;;;;4.20;3.25;;;14.70;78.30;;;;;;5133366;27;20078;-59
2021/10/29 06:05:29;;;;;;;3.72;2.60;;;14.70;78.40;;;;;;5133901;28;20042;-59
2021/10/29 06:07:56;;;;;;;3.33;3.00;;;14.70;78.40;;;;;;5133361;28;20047;-59
2021/10/29 06:10:22;;;;;;;3.97;3.28;;;14.80;78.50;;;;;;5099771;27;20043;-59
2021/10/29 06:12:47;;;;;;;3.08;2.67;;;14.70;78.40;;;;;;5137654;27;20155;-59
2021/10/29 06:15:16;;;;;;;3.40;3.10;;;14.70;78.40;;;;;;5136480;27;20410;-58
2021/10/29 06:17:42;;;;;;;4.35;3.00;;;14.70;78.40;;;;;;5115078;27;20050;-59
2021/10/29 06:20:08;;;;;;;3.50;2.80;;;14.70;78.40;;;;;;5135942;27;20414;-58
2021/10/29 06:25:28;;;;;;;3.83;3.05;;;14.70;78.40;;;;;;5060249;28;20052;-58
2021/10/29 06:28:18;;;;;;;5.05;3.35;;;14.70;78.40;;;;;;5054033;28;20122;-57
2021/10/29 06:30:46;;;;;;;3.45;3.15;;;14.70;78.40;;;;;;5053712;28;20505;-59
2021/10/29 06:33:15;;;;;;;3.85;3.08;;;14.70;78.40;;;;;;5054195;28;20124;-59
2021/10/29 06:35:42;;;;;;;3.92;3.25;;;14.70;79.00;;;;;;5054979;28;20036;-59
2021/10/29 06:38:09;;;;;;;3.60;3.10;;;14.70;78.40;;;;;;5054129;28;20052;-59
2021/10/29 06:40:42;;;;;;;3.97;3.03;;;14.60;78.30;;;;;;5037423;28;20045;-59
2021/10/29 06:43:13;;;;;;;3.92;2.80;;;14.70;78.40;;;;;;5054552;28;20061;-58
2021/10/29 07:39:55;;;;;;;3.88;3.20;;;14.70;78.40;;;;;;5136799;27;20071;-59
2021/10/29 07:42:59;;;;;;;3.17;2.80;;;14.60;78.40;;;;;;5032918;28;20049;-58
2021/10/29 07:45:27;;;;;;;3.50;2.78;;;14.70;78.50;;;;;;5032594;28;21453;-58
2021/10/29 07:47:56;;;;;;;3.70;2.97;;;14.70;78.50;;;;;;5034041;28;20052;-59
2021/10/29 07:50:24;;;;;;;3.60;2.72;;;14.70;78.50;;;;;;5041452;28;20036;-58
2021/10/29 07:52:51;;;;;;;3.88;2.78;;;14.70;78.40;;;;;;5042848;28;20103;-59
2021/10/29 07:55:20;;;;;;;10.00;7.50;;;14.70;78.50;;;;;;5043625;28;20393;-61
2021/10/29 07:57:49;;;;;;;9.13;6.57;;;14.70;77.40;;;;;;5030102;28;20177;-64
2021/10/29 08:00:17;;;;;;;9.52;7.05;;;14.60;77.40;;;;;;5012213;28;20074;-62
2021/10/29 08:02:51;;;;;;;9.45;6.55;;;14.60;77.40;;;;;;5012139;28;20045;-61
2021/10/29 08:05:17;;;;;;;8.88;7.03;;;14.60;77.40;;;;;;5011545;28;20074;-62
2021/10/29 08:07:43;;;;;;;10.23;6.70;;;14.50;77.40;;;;;;5011960;28;20065;-64
2021/10/29 08:10:11;;;;;;;11.32;7.30;;;14.50;77.40;;;;;;5013222;28;20049;-62
2021/10/29 08:12:38;;;;;;;9.38;7.63;;;14.50;77.40;;;;;;5014151;28;20073;-63
2021/10/29 08:15:05;;;;;;;9.68;7.18;;;14.50;77.40;;;;;;5031847;28;20049;-62
2021/10/29 08:17:33;;;;;;;9.02;7.22;;;14.50;77.40;;;;;;5030587;28;20108;-63
2021/10/29 08:20:00;;;;;;;8.38;6.95;;;14.50;77.30;;;;;;5126897;27;20104;-63
2021/10/29 08:22:26;;;;;;;9.15;6.65;;;14.50;77.30;;;;;;5133771;27;20051;-66
2021/10/29 08:24:52;;;;;;;7.95;6.55;;;14.40;77.30;;;;;;5133835;27;20360;-64
2021/10/29 08:27:18;;;;;;;9.07;7.15;;;14.50;77.40;;;;;;5133876;27;20054;-63
2021/10/29 08:29:44;;;;;;;9.93;7.10;;;14.50;77.40;;;;;;5134882;27;20043;-61
2021/10/29 08:32:10;;;;;;;8.70;7.20;;;14.50;77.40;;;;;;5154245;27;20039;-63
2021/10/29 08:34:36;;;;;;;8.38;6.85;;;14.50;77.50;;;;;;5133796;27;20080;-63
2021/10/29 08:37:05;;;;;;;12.40;8.45;;;14.50;77.20;;;;;;5133168;27;20038;-62
2021/10/29 08:39:33;;;;;;;8.25;6.75;;;14.50;77.30;;;;;;5133831;27;20046;-60
2021/10/29 08:42:01;;;;;;;10.52;7.15;;;14.50;77.40;;;;;;5133005;27;20073;-61
2021/10/29 08:44:28;;;;;;;13.57;7.22;;;14.40;77.30;;;;;;5133370;27;20039;-64
2021/10/29 08:46:55;;;;;;;10.93;7.55;;;14.40;77.40;;;;;;5129908;27;20133;-62
2021/10/29 08:49:21;;;;;;;9.48;6.88;;;14.40;77.40;;;;;;5110524;27;20563;-64
2021/10/29 08:51:48;;;;;;;10.07;7.50;;;14.50;77.40;;;;;;5129073;27;20154;-63
2021/10/29 08:54:14;;;;;;;11.35;6.93;;;14.40;77.40;;;;;;5129359;27;20398;-63
2021/10/29 08:56:41;;;;;;;9.93;7.00;;;14.40;77.50;;;;;;5129335;27;20043;-64
2021/10/29 08:59:27;;;;;;;10.00;7.00;;;14.50;77.60;;;;;;5129801;27;20054;-63
2021/10/29 09:07:41;;;;;;;10.13;7.18;;;14.50;77.70;;;;;;5139700;27;20054;-64
2021/10/29 09:32:24;;;;;;;;;;;14.50;77.90;;;;;;5129556;27;20661;-61
2021/10/29 09:34:55;;;;;;;8.15;7.03;;;14.60;77.90;;;;;;5128612;27;19931;-62
2021/10/29 09:37:21;;;;;;;8.60;6.53;;;14.50;78.00;;;;;;5128864;27;20462;-62
2021/10/29 09:39:53;;;;;;;7.93;6.93;;;14.50;78.00;;;;;;5124128;27;20031;-61
2021/10/29 09:42:21;;;;;;;8.95;6.57;;;14.50;78.00;;;;;;5127477;27;20590;-63
2021/10/29 09:44:52;;;;;;;9.13;6.30;;;14.50;78.00;;;;;;5128650;27;20051;-64
2021/10/29 09:47:22;;;;;;;9.57;7.22;;;14.60;78.00;;;;;;5122673;27;20142;-62
2021/10/29 09:50:07;;;;;;;7.20;6.13;;;14.60;78.00;;;;;;5128672;27;20051;-64
2021/10/29 09:57:34;;;;;;;9.48;6.53;;;14.60;78.00;;;;;;5116613;27;20505;-62
2021/10/29 10:00:14;;;;;;;7.68;5.57;;;14.60;78.00;;;;;;5132151;27;20439;-64
2021/10/29 10:02:42;;;;;;;8.13;6.75;;;14.60;78.00;;;;;;5131770;27;20039;-62
2021/10/29 10:05:08;;;;;;;7.95;6.07;;;14.60;78.10;;;;;;5132824;28;20047;-62
2021/10/29 10:07:41;;;;;;;6.90;5.90;;;14.60;78.10;;;;;;5113360;28;20062;-61
2021/10/29 10:10:09;;;;;;;6.93;5.78;;;14.60;78.00;;;;;;5132833;28;20046;-62
2021/10/29 10:12:37;;;;;;;7.57;6.10;;;14.60;78.00;;;;;;5129039;28;20035;-63
2021/10/29 10:15:05;;;;;;;8.35;6.00;;;14.60;78.10;;;;;;5133092;28;20095;-64
2021/10/29 10:17:32;;;;;;;7.95;6.15;;;14.60;78.00;;;;;;5132164;28;20050;-63
2021/10/29 10:19:59;;;;;;;8.10;6.43;;;14.60;78.00;;;;;;5132760;28;20164;-63
2021/10/29 10:22:28;;;;;;;7.13;5.57;;;14.60;78.00;;;;;;5114426;28;20070;-64
2021/10/29 10:25:07;;;;;;;7.43;5.85;;;14.60;78.10;;;;;;5110834;28;20058;-63
2021/10/29 10:30:45;;;;;;;8.65;5.70;;;14.60;77.90;;;;;;5111941;28;20107;-62
2021/10/29 10:42:46;;;;;;;7.20;4.97;;;14.60;77.90;;;;;;5007947;28;20509;-61
2021/10/29 10:45:19;;;;;;;6.97;5.00;;;14.60;78.00;;;;;;5006220;28;20046;-61
2021/10/29 10:47:50;;;;;;;7.45;5.43;;;14.60;78.10;;;;;;5008469;28;20053;-62
2021/10/29 10:50:28;;;;;;;8.50;6.25;;;14.60;78.00;;;;;;5004716;28;20073;-60
2021/10/29 10:53:12;;;;;;;6.53;5.10;;;14.70;78.00;;;;;;5008494;28;20062;-61
2021/10/29 11:01:33;;;;;;;6.75;5.63;;;14.70;78.00;;;;;;5012704;28;20053;-61
2021/10/29 11:12:21;;;;;;;6.35;5.15;;;14.70;77.90;;;;;;5021038;28;20053;-64
2021/10/29 11:15:05;;;;;;;6.00;5.25;;;14.70;77.90;;;;;;5015109;28;20493;-63
2021/10/29 11:17:47;;;;;;;9.55;5.32;;;14.70;77.90;;;;;;5035489;28;20054;-63
2021/10/29 11:23:25;;;;;;;7.30;5.78;;;14.70;77.90;;;;;;5114383;27;20075;-64
2021/10/29 11:26:01;;;;;;;6.50;5.70;;;14.70;77.90;;;;;;5133527;27;20054;-61
2021/10/29 11:28:33;;;;;;;6.00;5.40;;;14.70;77.90;;;;;;5147381;27;20382;-63
2021/10/29 11:31:00;;;;;;;7.47;5.28;;;14.70;77.90;;;;;;5145692;27;20804;-62
2021/10/29 11:33:27;;;;;;;7.88;5.03;;;14.70;77.90;;;;;;5135148;27;20035;-64
2021/10/29 11:36:14;;;;;;;5.60;5.07;;;14.70;77.90;;;;;;5134856;27;20039;-63
2021/10/29 11:38:42;;;;;;;7.68;4.75;;;14.80;77.90;;;;;;5133990;27;20043;-62
2021/10/29 11:41:12;;;;;;;8.98;5.28;;;14.70;77.90;;;;;;5114841;27;20118;-61
2021/10/29 11:43:38;;;;;;;6.60;4.93;;;14.80;77.90;;;;;;5115207;27;20066;-64
2021/10/29 11:46:06;;;;;;;6.55;5.28;;;14.80;77.90;;;;;;5114811;27;20046;-67
2021/10/29 11:48:43;;;;;;;5.50;4.85;;;14.70;77.80;;;;;;5133630;27;20126;-67
2021/10/29 11:51:13;;;;;;;7.20;4.78;;;14.70;77.80;;;;;;5134819;27;20043;-65
2021/10/29 11:53:47;;;;;;;8.27;4.97;;;14.80;77.80;;;;;;5133654;27;20782;-66
2021/10/29 12:07:14;;;;;;;6.93;4.32;;;14.80;77.50;;;;;;5051603;28;20085;-59
2021/10/29 12:09:42;;;;;;;7.40;5.40;;;14.80;77.60;;;;;;5051537;28;20087;-59
2021/10/29 12:12:12;;;;;;;6.38;4.97;;;14.90;77.60;;;;;;5051486;28;20052;-59
2021/10/29 12:14:41;;;;;;;8.25;5.85;;;14.80;77.60;;;;;;5051070;28;20115;-59
2021/10/29 12:17:16;;;;;;;7.97;4.70;;;14.90;77.30;;;;;;5051122;28;20133;-59
2021/10/29 12:19:44;;;;;;;14.27;6.72;;;15.00;76.70;;;;;;5034655;28;20559;-59
2021/10/29 12:24:49;;;;;;;6.32;5.40;;;15.10;75.90;;;;;;5050867;28;20089;-62
2021/10/29 12:27:27;;;;;;;7.53;5.07;;;15.20;75.90;;;;;;5051220;28;20048;-59
2021/10/29 12:30:04;;;;;;;11.80;5.50;;;15.20;75.90;;;;;;5051467;28;20184;-60
2021/10/29 12:32:45;;;;;;;6.78;5.60;;;15.20;75.90;;;;;;5050910;28;20044;-61
2021/10/29 12:38:40;;;;;;;8.10;5.57;;;15.10;76.20;;;;;;5134836;27;20474;-60
2021/10/29 13:03:55;;;;;;;5.88;4.95;;;15.00;77.00;;;;;;5134011;27;20043;-61
2021/10/29 13:06:21;;;;;;;5.53;4.28;;;15.00;77.10;;;;;;5133729;27;20118;-60
2021/10/29 13:08:50;;;;;;;6.07;4.75;;;15.00;77.10;;;;;;5133669;27;20526;-61
2021/10/29 13:11:17;;;;;;;6.00;4.50;;;15.00;77.10;;;;;;5134024;27;20057;-61
2021/10/29 13:16:14;;;;;;;4.72;3.80;;;15.00;77.20;;;;;;5134219;27;20047;-61
2021/10/29 13:51:14;;;;;;;10.68;4.32;;;15.50;73.50;;;;;;5070221;28;20102;-56
2021/10/29 14:33:52;;;;;;;6.25;3.78;;;15.30;75.10;;;;;;5000059;28;20073;-56
2021/10/29 14:36:21;;;;;;;4.72;3.80;;;15.30;75.20;;;;;;5022356;28;20050;-59
2021/10/29 14:38:56;;;;;;;5.65;3.78;;;15.20;75.20;;;;;;5050436;28;20059;-62
2021/10/29 14:41:38;;;;;;;4.53;3.72;;;15.20;75.30;;;;;;5108733;27;20050;-61
2021/10/29 14:44:14;;;;;;;4.45;3.55;;;15.30;75.40;;;;;;5131828;27;20055;-57
2021/10/29 14:49:45;;;;;;;5.72;3.58;;;15.20;75.50;;;;;;5069113;28;20135;-55
2021/10/29 15:03:35;;;;;;;5.13;3.33;;;15.20;75.80;;;;;;5069152;28;20439;-54
2021/10/29 15:05:58;;;;;;;4.65;3.45;;;15.20;75.80;;;;;;5068143;28;20072;-63
2021/10/29 15:27:46;;;;;;;4.22;3.28;;;15.10;76.00;;;;;;5086484;28;20067;-50
2021/10/29 15:46:21;;;;;;;3.47;2.70;;;15.20;76.30;;;;;;5028100;28;20133;-59
2021/10/29 15:51:15;;;;;;;3.88;2.72;;;15.20;76.30;;;;;;5039598;28;20400;-52
2021/10/29 15:53:43;;;;;;;3.03;2.63;;;15.10;76.30;;;;;;5047382;28;20045;-54
2021/10/29 15:56:58;;;;;;;4.55;2.78;;;15.20;76.30;;;;;;5047818;28;20505;-62
2021/10/29 15:59:06;;;;;;;3.67;3.00;;;15.10;76.30;;;;;;5029097;28;20059;-55
2021/10/29 16:17:26;;;;;;;3.97;2.80;;;15.10;76.40;;;;;;5047327;28;20520;-51
2021/10/29 16:19:52;;;;;;;4.80;3.05;;;15.10;76.50;;;;;;5047718;28;20076;-54
2021/10/29 16:22:27;;;;;;;3.63;2.60;;;15.10;76.50;;;;;;5054419;27;20137;-52
2021/10/29 16:25:00;;;;;;;2.80;2.60;;;15.10;76.50;;;;;;5130850;27;20093;-57
2021/10/29 16:27:36;;;;;;;3.97;2.53;;;15.10;77.10;;;;;;5131674;27;20107;-53
2021/10/29 16:30:02;;;;;;;;;;;15.20;76.50;;;;;;5131370;27;20557;-57
2021/10/29 16:32:50;;;;;;;3.17;2.75;;;15.10;76.40;;;;;;5131490;27;19930;-55
2021/10/29 16:35:14;;;;;;;2.90;2.60;;;15.10;76.60;;;;;;5130690;27;20047;-50
2021/10/29 16:37:39;;;;;;;3.97;2.80;;;15.10;76.60;;;;;;5131562;27;20087;-55
2021/10/29 16:40:06;;;;;;;3.38;2.47;;;15.20;76.60;;;;;;5131402;27;20043;-51
2021/10/29 16:42:31;;;;;;;3.47;2.40;;;15.10;76.60;;;;;;5131064;27;20043;-56
2021/10/29 16:44:57;;;;;;;2.80;2.38;;;15.10;76.70;;;;;;5130306;27;20368;-48
2021/10/29 16:47:22;;;;;;;3.33;2.40;;;15.10;76.60;;;;;;5131055;27;20525;-58
2021/10/29 16:49:49;;;;;;;4.30;2.70;;;15.20;76.60;;;;;;5131367;27;20070;-52
2021/10/29 16:52:15;;;;;;;3.05;2.75;;;15.10;76.60;;;;;;5130825;27;20050;-52
2021/10/29 16:54:40;;;;;;;4.07;3.13;;;15.10;76.50;;;;;;5129683;27;20035;-52
2021/10/29 16:57:06;;;;;;;3.63;2.75;;;15.20;76.60;;;;;;5131080;27;20039;-55
2021/10/29 16:59:31;;;;;;;2.50;2.22;;;15.10;76.60;;;;;;5131119;27;20043;-53
2021/10/29 17:01:57;;;;;;;2.80;2.40;;;15.20;76.60;;;;;;5130792;27;20104;-54
2021/10/29 17:04:23;;;;;;;4.32;2.88;;;15.10;76.60;;;;;;5130789;27;20108;-54
2021/10/29 17:06:48;;;;;;;3.20;2.40;;;15.10;76.60;;;;;;5117787;27;20044;-54
2021/10/29 17:09:14;;;;;;;3.17;2.50;;;15.10;76.60;;;;;;5110150;28;20345;-59
2021/10/29 17:11:40;;;;;;;3.10;2.47;;;15.20;76.70;;;;;;5110067;28;20032;-57
2021/10/29 17:14:05;;;;;;;3.55;2.90;;;15.10;76.60;;;;;;5110876;27;20395;-62
2021/10/29 17:16:31;;;;;;;2.72;2.35;;;15.10;76.60;;;;;;5127618;27;20077;-59
2021/10/29 17:18:57;;;;;;;3.35;2.45;;;15.10;76.60;;;;;;5131342;27;20049;-56
2021/10/29 17:21:23;;;;;;;5.32;3.05;;;15.10;76.60;;;;;;5134332;27;20126;-60
2021/10/29 17:23:48;;;;;;;7.15;3.53;;;15.20;76.60;;;;;;5111662;28;20055;-61
2021/10/29 17:26:14;;;;;;;4.95;3.45;;;15.10;76.20;;;;;;5113162;28;20062;-58
2021/10/29 17:28:40;;;;;;;8.98;3.40;;;15.20;76.30;;;;;;5112514;28;20043;-57
2021/10/29 17:31:05;;;;;;;5.63;3.08;;;15.10;76.20;;;;;;5113382;28;20040;-60
2021/10/29 17:33:31;;;;;;;4.78;3.70;;;15.10;76.20;;;;;;5112763;28;20043;-61
2021/10/29 17:35:57;;;;;;;3.83;3.35;;;15.10;76.30;;;;;;5113360;28;20107;-59
2021/10/29 17:38:23;;;;;;;5.50;2.92;;;15.10;76.30;;;;;;5113474;28;20489;-58
2021/10/29 17:40:49;;;;;;;3.55;3.00;;;15.10;76.30;;;;;;5112630;28;20122;-57
2021/10/29 17:43:15;;;;;;;4.05;3.08;;;15.10;76.40;;;;;;5113336;28;20040;-57
2021/10/29 17:45:43;;;;;;;4.00;2.85;;;15.20;76.40;;;;;;5112820;28;20124;-57
2021/10/29 17:48:09;;;;;;;3.85;3.00;;;15.20;76.50;;;;;;5111242;28;20054;-57
2021/10/29 17:50:36;;;;;;;3.78;3.15;;;15.20;76.50;;;;;;5112640;28;20061;-57
2021/10/29 17:53:02;;;;;;;4.75;2.95;;;15.10;76.50;;;;;;5112719;28;20127;-57
2021/10/29 17:55:31;;;;;;;3.45;2.80;;;15.10;76.50;;;;;;5112749;28;20128;-56
2021/10/29 17:57:57;;;;;;;4.43;3.08;;;15.20;76.60;;;;;;5112819;28;20039;-57
2021/10/29 18:00:23;;;;;;;6.25;3.17;;;15.10;76.50;;;;;;5093312;28;20143;-57
2021/10/29 18:02:49;;;;;;;4.70;3.13;;;15.10;76.60;;;;;;5112520;28;20071;-57